Data for 08/29/2007

Time Sea-Level Adjusted Pressure Absolute Pressure Temperature Relative Humidity Dew Point   
(mb) (inHg) (mb) (inHg) (C) (F) (%) (C) (F)
00:05 1023 30.21 853 25.19 13.9 57.1 62 6.8 44.2
00:10 1023 30.21 853 25.19 13.8 56.8 62 6.7 44
00:15 1023 30.21 853 25.19 13.9 56.9 62 6.7 44.1
00:20 1023 30.21 853 25.19 13.8 56.9 62 6.7 44.1
00:25 1023 30.21 853 25.19 13.8 56.8 62 6.7 44.1
00:30 1023 30.21 853 25.19 13.7 56.6 63 6.7 44.1
00:35 1023 30.21 853 25.19 13.7 56.6 62 6.7 44
00:40 1023 30.21 853 25.19 13.6 56.5 63 6.7 44.1
00:45 1023 30.21 853 25.19 13.6 56.4 63 6.7 44
00:50 1023 30.21 853 25.19 13.5 56.4 63 6.7 44.1
00:55 1023 30.21 853 25.19 13.5 56.3 63 6.7 44
01:00 1023 30.21 853 25.19 13.5 56.2 63 6.7 44.1
01:05 1023 30.21 853 25.19 13.4 56.1 63 6.7 44
01:10 1023 30.21 853 25.19 13.4 56.2 63 6.7 44.1
01:15 1024 30.24 853 25.19 13.4 56.2 63 6.6 43.9
01:20 1024 30.24 853 25.19 13.5 56.3 63 6.7 44.1
01:25 1024 30.24 853 25.19 13.5 56.2 63 6.7 44.1
01:30 1024 30.24 853 25.19 13.4 56.1 64 6.7 44.1
01:35 1024 30.24 853 25.19 13.3 56 64 6.7 44
01:40 1024 30.24 853 25.19 13.3 56 64 6.7 44.1
01:45 1024 30.24 853 25.19 13.2 55.8 64 6.7 44
01:50 1024 30.24 853 25.19 13.2 55.7 65 6.7 44.1
01:55 1024 30.24 853 25.19 13.1 55.6 65 6.6 44
02:00 1024 30.24 853 25.19 13.1 55.6 65 6.8 44.2
02:05 1024 30.24 853 25.19 13.1 55.6 65 6.7 44.1
02:10 1024 30.24 853 25.19 13.1 55.6 65 6.8 44.2
02:15 1024 30.24 853 25.19 13 55.5 65 6.7 44.1
02:20 1024 30.24 853 25.19 13 55.5 65 6.7 44
02:25 1024 30.24 853 25.19 13.1 55.5 65 6.7 44.1
02:30 1024 30.24 853 25.19 13.1 55.6 65 6.8 44.2
02:35 1024 30.24 853 25.19 13.1 55.5 66 6.8 44.2
02:40 1024 30.24 853 25.19 13 55.4 65 6.7 44.1
02:45 1024 30.24 853 25.19 13 55.4 66 6.8 44.2
02:50 1024 30.24 853 25.19 13 55.3 66 6.8 44.3
02:55 1024 30.24 853 25.19 12.9 55.3 66 6.8 44.3
03:00 1024 30.24 853 25.19 12.9 55.1 66 6.7 44.1
03:05 1024 30.24 853 25.19 12.9 55.2 66 6.9 44.4
03:10 1024 30.24 853 25.19 12.7 54.9 67 6.8 44.2
03:15 1024 30.24 853 25.19 12.6 54.8 67 6.8 44.2
03:20 1024 30.24 853 25.19 12.5 54.6 68 6.8 44.2
03:25 1024 30.24 853 25.19 12.3 54.2 68 6.7 44
03:30 1024 30.24 853 25.19 12.2 53.9 69 6.6 43.9
03:35 1024 30.24 853 25.19 12.1 53.8 69 6.6 43.9
03:40 1024 30.24 853 25.19 12.1 53.7 69 6.6 43.9
03:45 1024 30.24 853 25.19 12 53.5 70 6.6 43.9
03:50 1024 30.24 853 25.19 12 53.5 69 6.6 43.8
03:55 1024 30.24 853 25.19 12 53.5 69 6.6 43.9
04:00 1024 30.24 853 25.19 11.8 53.3 69 6.4 43.6
04:05 1024 30.24 853 25.19 11.8 53.2 70 6.4 43.6
04:10 1024 30.24 853 25.19 11.7 53 70 6.3 43.4
04:15 1024 30.24 853 25.19 11.7 53 70 6.4 43.5
04:20 1024 30.24 853 25.19 11.7 53 70 6.4 43.6
04:25 1024 30.24 853 25.19 11.8 53.3 70 6.6 43.8
04:30 1024 30.24 853 25.19 11.9 53.4 70 6.7 44
04:35 1024 30.24 853 25.19 11.9 53.4 70 6.7 44
04:40 1024 30.24 853 25.19 11.9 53.4 70 6.6 43.9
04:45 1024 30.24 853 25.19 11.9 53.3 70 6.6 43.9
04:50 1024 30.24 853 25.19 11.9 53.4 70 6.7 44
04:55 1024 30.24 853 25.19 11.9 53.4 70 6.7 44.1
05:00 1024 30.24 853 25.19 12 53.7 70 6.7 44.1
05:05 1024 30.24 853 25.19 12.1 53.7 70 6.7 44.1
05:10 1024 30.24 853 25.19 12 53.7 70 6.7 44.1
05:15 1024 30.24 853 25.19 12.1 53.8 69 6.7 44
05:20 1024 30.24 853 25.19 12.1 53.8 69 6.7 44
05:25 1024 30.24 853 25.19 12.1 53.7 69 6.7 44.1
05:30 1024 30.24 853 25.19 12 53.7 70 6.7 44.1
05:35 1024 30.24 853 25.19 12 53.5 70 6.6 44
05:40 1024 30.24 853 25.19 11.9 53.5 70 6.7 44.1
05:45 1024 30.24 853 25.19 11.4 52.6 72 6.5 43.7
05:50 1024 30.24 853 25.19 11.3 52.4 72 6.4 43.5
05:55 1024 30.24 853 25.19 11.2 52.1 72 6.4 43.5
06:00 1024 30.24 853 25.19 11.2 52.1 71 6.2 43.2
06:05 1024 30.24 853 25.19 11.1 52 71 6.1 43
06:10 1024 30.24 853 25.19 11 51.7 72 6.1 42.9
06:15 1024 30.24 853 25.19 11 51.7 72 6.1 43
06:20 1024 30.24 853 25.19 11 51.8 72 6.2 43.2
06:25 1024 30.24 853 25.19 10.9 51.7 73 6.3 43.4
06:30 1024 30.24 853 25.19 10.8 51.4 73 6.3 43.3
06:35 1024 30.24 853 25.19 10.8 51.4 73 6.3 43.3
06:40 1024 30.24 853 25.19 10.9 51.5 74 6.4 43.5
06:45 1024 30.24 853 25.19 10.8 51.4 74 6.4 43.5
06:50 1024 30.24 853 25.19 10.7 51.2 74 6.2 43.2
06:55 1024 30.24 853 25.19 10.7 51.2 74 6.2 43.1
07:00 1024 30.24 853 25.19 10.7 51.3 73 6.2 43.1
07:05 1024 30.24 853 25.19 10.7 51.3 74 6.2 43.2
07:10 1024 30.24 853 25.19 10.9 51.6 72 6.1 43.1
07:15 1024 30.24 853 25.19 11.1 51.9 71 6.1 42.9
07:20 1024 30.24 853 25.19 11 51.7 71 6 42.9
07:25 1024 30.24 853 25.19 10.7 51.2 72 5.9 42.6
07:30 1024 30.24 853 25.19 10.7 51.3 72 5.9 42.6
07:35 1024 30.24 853 25.19 10.9 51.6 72 6 42.8
07:40 1024 30.24 853 25.19 11.1 52 71 6 42.8
07:45 1024 30.24 853 25.19 11.2 52.2 71 6.1 43
07:50 1024 30.24 854 25.22 11.3 52.3 70 6.1 43
07:55 1024 30.24 854 25.22 11.5 52.7 69 6.2 43.1
08:00 1024 30.24 854 25.22 11.9 53.4 68 6.2 43.2
08:05 1024 30.24 854 25.22 12.3 54.1 66 6.2 43.2
08:10 1024 30.24 854 25.22 12.5 54.5 66 6.4 43.5
08:15 1024 30.24 854 25.22 12.8 55 65 6.3 43.4
08:20 1025 30.27 854 25.22 13 55.4 64 6.5 43.8
08:25 1024 30.24 854 25.22 13.3 55.9 64 6.6 43.8
08:30 1025 30.27 854 25.22 13.4 56.1 64 6.7 44.1
08:35 1025 30.27 854 25.22 13.8 56.8 62 6.7 44.1
08:40 1025 30.27 854 25.22 14.3 57.8 61 6.9 44.5
08:45 1025 30.27 854 25.22 14.7 58.5 60 7.1 44.7
08:50 1025 30.27 854 25.22 15 58.9 59 7.1 44.8
08:55 1025 30.27 854 25.22 15.2 59.4 58 7.1 44.9
09:00 1025 30.27 854 25.22 15.6 60 55 6.8 44.2
09:05 1025 30.27 854 25.22 15.8 60.4 56 7 44.5
09:10 1025 30.27 854 25.22 15.8 60.4 54 6.7 44
09:15 1025 30.27 854 25.22 16 60.7 54 6.8 44.2
09:20 1025 30.27 854 25.22 15.8 60.5 54 6.6 43.9
09:25 1025 30.27 854 25.22 16.1 61 53 6.6 43.8
09:30 1025 30.27 854 25.22 16.4 61.5 51 6.4 43.6
09:35 1025 30.27 854 25.22 16.7 62.1 51 6.6 43.8
09:40 1025 30.27 854 25.22 17.2 63 49 6.5 43.7
09:45 1025 30.27 854 25.22 17 62.5 49 6.2 43.1
09:50 1025 30.27 854 25.22 17 62.6 47 5.6 42.1
09:55 1025 30.27 854 25.22 17.7 63.8 44 5.5 42
10:00 1025 30.27 854 25.22 18.3 64.9 45 6.2 43.1
10:05 1025 30.27 854 25.22 18.8 65.9 43 6.3 43.3
10:10 1025 30.27 854 25.22 19.1 66.3 43 6.3 43.4
10:15 1025 30.27 854 25.22 19.5 67.1 42 6.5 43.6
10:20 1025 30.27 854 25.22 19.5 67.2 43 6.9 44.4
10:25 1025 30.27 854 25.22 19.3 66.8 45 7.3 45.2
10:30 1025 30.27 854 25.22 19.8 67.7 43 7.1 44.8
10:35 1025 30.27 854 25.22 19.6 67.3 44 7.2 44.9
10:40 1025 30.27 854 25.22 19.5 67 44 7.1 44.8
10:45 1025 30.27 854 25.22 19.8 67.7 45 7.6 45.6
10:50 1025 30.27 854 25.22 19 66.1 47 7.4 45.3
10:55 1025 30.27 854 25.22 19.1 66.4 46 7.3 45.1
11:00 1025 30.27 854 25.22 20 68 41 6.5 43.7
11:05 1025 30.27 854 25.22 20.6 69 41 7 44.6
11:10 1025 30.27 854 25.22 20.7 69.3 38 6 42.9
11:15 1025 30.27 854 25.22 20.2 68.4 42 6.9 44.5
11:20 1025 30.27 854 25.22 19.4 67 42 6.2 43.2
11:25 1025 30.27 854 25.22 19.7 67.4 39 5.4 41.7
11:30 1024 30.24 854 25.22 20.5 68.9 40 6.5 43.7
11:35 1024 30.24 854 25.22 20.1 68.2 38 5.4 41.8
11:40 1024 30.24 854 25.22 20.3 68.5 38 5.5 41.9
11:45 1024 30.24 854 25.22 21.6 70.8 35 5.5 41.8
11:50 1024 30.24 854 25.22 22.2 72 34 5.8 42.5
11:55 1024 30.24 853 25.19 22.4 72.4 34 5.9 42.6
12:00 1024 30.24 853 25.19 22.3 72.2 34 5.8 42.5
12:05 1024 30.24 853 25.19 22.1 71.8 34 5.6 42
12:10 1024 30.24 853 25.19 22.7 72.9 33 5.9 42.7
12:15 1024 30.24 853 25.19 22.7 72.8 34 6.2 43.2
12:20 1024 30.24 853 25.19 22 71.6 35 6 42.8
12:25 1024 30.24 853 25.19 22.6 72.6 33 5.8 42.4
12:30 1024 30.24 853 25.19 23.4 74.1 31 5.7 42.2
12:35 1024 30.24 853 25.19 23.2 73.8 31 5.3 41.6
12:40 1024 30.24 853 25.19 23.8 74.9 29 5 41.1
12:45 1024 30.24 853 25.19 24.4 75.8 28 4.8 40.7
12:50 1024 30.24 853 25.19 24.7 76.5 29 5.7 42.2
12:55 1024 30.24 853 25.19 24.7 76.4 28 5.4 41.8
13:00 1024 30.24 853 25.19 23.6 74.4 31 5.5 42
13:05 1024 30.24 853 25.19 22.8 73 31 5 40.9
13:10 1024 30.24 853 25.19 24.2 75.5 28 4.9 40.8
13:15 1024 30.24 853 25.19 24.7 76.5 29 5.7 42.3
13:20 1024 30.24 853 25.19 24.6 76.3 29 5.8 42.4
13:25 1024 30.24 853 25.19 24.6 76.3 30 6.2 43.2
13:30 1023 30.21 853 25.19 24.6 76.2 30 5.9 42.7
13:35 1023 30.21 853 25.19 24.7 76.5 29 5.6 42.1
13:40 1023 30.21 853 25.19 24.9 76.8 28 5.5 41.8
13:45 1023 30.21 853 25.19 25.6 78.1 27 5.4 41.7
13:50 1023 30.21 852 25.16 25.7 78.3 27 5.5 41.9
13:55 1023 30.21 852 25.16 26 78.7 27 5.6 42.1
14:00 1023 30.21 852 25.16 26.2 79.2 26 5.2 41.4
14:05 1023 30.21 852 25.16 26.4 79.5 25 5.1 41.3
14:10 1023 30.21 852 25.16 26.6 79.8 24 4.8 40.7
14:15 1023 30.21 852 25.16 26.6 79.8 24 4.9 40.8
14:20 1023 30.21 852 25.16 26.4 79.6 24 4.5 40.1
14:25 1023 30.21 852 25.16 26.7 80.1 24 4.5 40.1
14:30 1023 30.21 852 25.16 27 80.6 22 4.1 39.3
14:35 1023 30.21 852 25.16 27.1 80.7 23 4.5 40
14:40 1023 30.21 852 25.16 27.7 81.9 22 4.4 40
14:45 1023 30.21 852 25.16 28.2 82.8 20 3.5 38.2
14:50 1023 30.21 852 25.16 28.4 83.2 21 4.5 40
14:55 1023 30.21 852 25.16 28.1 82.5 21 3.8 38.8
15:00 1023 30.21 852 25.16 27.3 81.1 21 3.3 38
15:05 1023 30.21 852 25.16 27.1 80.8 21 3.5 38.2
15:10 1023 30.21 852 25.16 27.9 82.1 21 4.1 39.4
15:15 1023 30.21 852 25.16 27.9 82.3 21 4.1 39.4
15:20 1022 30.18 852 25.16 28.6 83.5 20 4 39.2
15:25 1022 30.18 852 25.16 28.6 83.5 20 3.8 38.8
15:30 1022 30.18 852 25.16 28.6 83.5 21 4.2 39.6
15:35 1022 30.18 852 25.16 28.5 83.4 21 4.1 39.3
15:40 1022 30.18 852 25.16 28.8 83.8 20 3.6 38.4
15:45 1022 30.18 852 25.16 29 84.1 19 3.2 37.7
15:50 1022 30.18 851 25.13 29.2 84.6 18 2.8 37.1
15:55 1022 30.18 851 25.13 28.9 84.1 18 2.5 36.5
16:00 1022 30.18 851 25.13 28.9 84.1 18 2.5 36.5
16:05 1022 30.18 851 25.13 28.9 84.1 18 2.8 37
16:10 1022 30.18 851 25.13 28.8 83.8 18 2.1 35.8
16:15 1022 30.18 851 25.13 28.5 83.2 19 2.8 37.1
16:20 1022 30.18 851 25.13 28.1 82.6 18 2.2 35.9
16:25 1022 30.18 851 25.13 28 82.5 18 2 35.6
16:30 1022 30.18 851 25.13 28.5 83.3 18 2 35.7
16:35 1022 30.18 851 25.13 28.6 83.5 18 1.9 35.5
16:40 1022 30.18 851 25.13 28.5 83.3 19 2.8 37
16:45 1022 30.18 851 25.13 28.8 83.9 18 2.3 36.1
16:50 1022 30.18 851 25.13 28.5 83.3 17 1.5 34.8
16:55 1022 30.18 851 25.13 28.4 83 16 0.9 33.6
17:00 1022 30.18 851 25.13 28.7 83.7 16 0.6 33.1
17:05 1022 30.18 851 25.13 29 84.2 16 0.6 33.1
17:10 1022 30.18 851 25.13 29.1 84.4 15 0.4 32.8
17:15 1022 30.18 851 25.13 29.2 84.5 15 0.3 32.6
17:20 1022 30.18 851 25.13 28.9 84 15 -0.1 31.8
17:25 1022 30.18 851 25.13 28.4 83.2 15 -0.8 30.6
17:30 1022 30.18 851 25.13 28.7 83.7 14 -1.2 29.9
17:35 1022 30.18 851 25.13 28.7 83.7 14 -0.8 30.6
17:40 1022 30.18 851 25.13 29.1 84.4 14 -0.7 30.8
17:45 1022 30.18 851 25.13 29.2 84.5 15 -0.1 31.8
17:50 1022 30.18 851 25.13 29.2 84.5 15 0.1 32.1
17:55 1022 30.18 851 25.13 29.2 84.6 14 -0.7 30.7
18:00 1022 30.18 851 25.13 29.4 84.9 14 -0.5 31.2
18:05 1022 30.18 851 25.13 29.4 84.8 14 -0.4 31.3
18:10 1022 30.18 851 25.13 29.3 84.7 14 -0.8 30.6
18:15 1022 30.18 851 25.13 29.3 84.7 15 0.1 32.2
18:20 1022 30.18 851 25.13 29.1 84.3 14 -0.8 30.6
18:25 1022 30.18 851 25.13 28.9 84.1 15 -0.2 31.7
18:30 1022 30.18 851 25.13 28.4 83.2 15 -0.3 31.5
18:35 1022 30.18 851 25.13 27.9 82.3 16 -0.3 31.5
18:40 1022 30.18 851 25.13 27.7 81.9 15 -0.9 30.4
18:45 1022 30.18 851 25.13 27.7 81.8 16 -0.2 31.7
18:50 1022 30.18 851 25.13 27.5 81.5 18 1.7 35
18:55 1022 30.18 851 25.13 27.5 81.6 15 -0.7 30.8
19:00 1022 30.18 851 25.13 27.4 81.3 17 0.7 33.2
19:05 1022 30.18 851 25.13 27.4 81.3 16 -0.7 30.7
19:10 1022 30.18 851 25.13 27.3 81.1 16 -0.7 30.8
19:15 1022 30.18 851 25.13 27.1 80.8 16 -0.7 30.7
19:20 1022 30.18 851 25.13 27 80.6 17 0.1 32.2
19:25 1022 30.18 851 25.13 26.8 80.3 16 -1 30.2
19:30 1022 30.18 851 25.13 26.7 80 20 2.1 35.7
19:35 1022 30.18 851 25.13 26.3 79.3 24 4.6 40.3
19:40 1022 30.18 851 25.13 25.6 78.1 30 6.8 44.2
19:45 1022 30.18 851 25.13 25.2 77.3 26 4.5 40.2
19:50 1022 30.18 851 25.13 24.4 75.9 34 7.6 45.6
19:55 1022 30.18 851 25.13 23.8 74.9 29 4.8 40.7
20:00 1022 30.18 851 25.13 23.5 74.3 28 4.4 39.9
20:05 1022 30.18 851 25.13 23.2 73.7 29 4.4 40
20:10 1022 30.18 851 25.13 22.9 73.1 30 4.7 40.5
20:15 1022 30.18 851 25.13 22.1 71.8 30 4 39.1
20:20 1022 30.18 851 25.13 21.6 70.9 33 4.6 40.3
20:25 1022 30.18 851 25.13 21.3 70.3 31 3.8 38.8
20:30 1022 30.18 851 25.13 20.9 69.6 33 4.1 39.5
20:35 1022 30.18 851 25.13 20.4 68.7 34 4.3 39.8
20:40 1022 30.18 851 25.13 19.7 67.5 37 4.9 40.8
20:45 1022 30.18 851 25.13 19.1 66.5 32 2.2 35.9
20:50 1022 30.18 851 25.13 20.1 68.2 26 0.1 32.2
20:55 1022 30.18 852 25.16 20.9 69.6 27 1.1 34
21:00 1022 30.18 852 25.16 20.3 68.5 27 1.1 34
21:05 1022 30.18 852 25.16 20.1 68.2 27 0.6 33.1
21:10 1022 30.18 852 25.16 20.1 68.2 27 0.9 33.7
21:15 1022 30.18 852 25.16 19.8 67.6 27 0.6 33
21:20 1022 30.18 852 25.16 19.4 66.9 29 0.9 33.6
21:25 1022 30.18 852 25.16 19 66.2 31 1.8 35.3
21:30 1022 30.18 852 25.16 18.8 65.8 30 0.8 33.5
21:35 1022 30.18 852 25.16 18.7 65.7 29 0.6 33.1
21:40 1022 30.18 852 25.16 18.9 66 28 0.1 32.2
21:45 1022 30.18 852 25.16 18.9 66 29 0.5 32.9
21:50 1023 30.21 852 25.16 18.9 65.9 28 0.2 32.4
21:55 1023 30.21 852 25.16 18.9 66 28 0 32.1
22:00 1023 30.21 852 25.16 18.8 65.8 28 0.1 32.2
22:05 1023 30.21 852 25.16 18.8 65.8 28 -0.1 31.8
22:10 1023 30.21 852 25.16 18.8 65.8 29 0.4 32.7
22:15 1023 30.21 852 25.16 18.5 65.2 28 -0.1 31.7
22:20 1023 30.21 852 25.16 18.6 65.6 28 -0 31.9
22:25 1023 30.21 852 25.16 18.6 65.4 29 0.1 32.2
22:30 1023 30.21 852 25.16 18.2 64.8 32 1.4 34.5
22:35 1023 30.21 852 25.16 18 64.4 30 0.3 32.6
22:40 1023 30.21 852 25.16 17.6 63.7 38 3.4 38.2
22:45 1023 30.21 852 25.16 17.5 63.5 31 0.3 32.6
22:50 1023 30.21 852 25.16 17.5 63.4 30 0 32.1
22:55 1023 30.21 852 25.16 17.6 63.6 30 -0.1 31.7
23:00 1023 30.21 852 25.16 17.6 63.8 30 -0.1 31.8
23:05 1023 30.21 852 25.16 17.6 63.7 33 1.4 34.6
23:10 1023 30.21 852 25.16 17.9 64.1 29 -0.3 31.5
23:15 1023 30.21 852 25.16 18 64.3 29 -0.2 31.7
23:20 1023 30.21 852 25.16 17.8 64.1 30 0.1 32.3
23:25 1023 30.21 852 25.16 17.6 63.6 31 0.2 32.4
23:30 1023 30.21 852 25.16 17.4 63.4 31 0.3 32.6
23:35 1023 30.21 852 25.16 17.3 63.2 33 0.9 33.7
23:40 1023 30.21 852 25.16 17.5 63.4 31 0.4 32.6
23:45 1023 30.21 852 25.16 17.5 63.4 32 0.6 33.1
23:50 1023 30.21 852 25.16 17.4 63.3 32 0.8 33.4
23:55 1023 30.21 852 25.16 17.3 63.1 32 0.6 33.1
24:00 1023 30.21 852 25.16 17.3 63.2 34 1.5 34.8